Glenwood, MN

1:12 AM CDT on June 23, 2017 (GMT -0500)
Glenwood Municipal

Weather History for KGHW - December, 2014

Change the Weather History Date:

Wednesday, December 31, 2014

  Actual Average Record
Temperature  
Mean Temperature 4 °F -  
Max Temperature 15 °F 21 °F 42 °F (1999)
Min Temperature -7 °F 1 °F -28 °F (1967)
Degree Days  
Heating Degree Days 61    
Moisture  
Dew Point 0 °F    
Average Humidity 78    
Maximum Humidity 92    
Minimum Humidity 58    
Precipitation  
Precipitation 0.00 in - - ()
Sea Level Pressure  
Sea Level Pressure 30.11 in    
Wind  
Wind Speed 14 mph (WSW)    
Max Wind Speed 23 mph    
Max Gust Speed 29 mph    
Visibility 10 miles    
Events Snow    
Averages and records for this station are not official NWS values.
T = Trace of Precipitation, MM = Missing Value Source: NWS Daily Summary

Daily Weather History Graph

Daily Weather History Graph

Search for Another Location

Airport or City:

Trip Planner

Search our weather history database for the weather conditions in past years. The results will help you decide how hot, cold, wet, or windy it might be!

Date:

Astronomy

Dec. 31, 2014 Rise Set
Actual Time 8:01 AM CST 4:47 PM CST
Civil Twilight 7:27 AM CST 5:21 PM CST
Nautical Twilight 6:50 AM CST 5:58 PM CST
Astronomical Twilight 6:13 AM CST 6:34 PM CST
Moon 1:46 PM CST (12/31) 3:21 AM CST (12/31)
Length of Visible Light 9h 53m
Length of Day
8h 45m
Waxing Gibbous, 80% of the Moon is Illuminated
Dec 31
Waxing Gibbous
Jan 4
Full
Jan 13
Last Quarter
Jan 20
New
Jan 26
First Quarter

Hourly Weather History & Observations

Time (CST) Temp. Windchill Dew Point Humidity Pressure Visibility Wind Dir Wind Speed Gust Speed Precip Events Conditions
12:13 AM -7.6 °F -25.7 °F -9.4 °F 92% 30.49 in 10.0 mi WSW 10.4 mph - N/A   Clear
12:33 AM -7.6 °F -25.7 °F -9.4 °F 92% 30.49 in 10.0 mi WSW 10.4 mph - N/A   Clear
12:53 AM -5.8 °F -24.4 °F -9.4 °F 84% 30.47 in 10.0 mi WSW 11.5 mph - N/A   Clear
1:13 AM -5.8 °F -24.4 °F -9.4 °F 84% 30.46 in 10.0 mi WSW 11.5 mph - N/A   Clear
1:33 AM -5.8 °F -24.4 °F -9.4 °F 84% 30.44 in 10.0 mi WSW 11.5 mph - N/A   Clear
1:53 AM -5.8 °F -24.4 °F -9.4 °F 84% 30.42 in 10.0 mi SW 11.5 mph - N/A   Clear
2:13 AM -5.8 °F -23.4 °F -9.4 °F 84% 30.41 in 10.0 mi SW 10.4 mph - N/A   Clear
2:33 AM -7.6 °F -27.5 °F -11.2 °F 84% 30.41 in 10.0 mi SSW 12.7 mph - N/A   Clear
2:53 AM -7.6 °F -28.3 °F -11.2 °F 84% 30.39 in 10.0 mi SSW 13.8 mph - N/A   Clear
3:13 AM -7.6 °F -27.5 °F -11.2 °F 84% 30.37 in 10.0 mi SSW 12.7 mph - N/A   Clear
3:33 AM -7.6 °F -27.5 °F -11.2 °F 84% 30.35 in 10.0 mi SSW 12.7 mph - N/A   Clear
3:53 AM -7.6 °F -27.5 °F -11.2 °F 84% 30.33 in 10.0 mi SSW 12.7 mph - N/A   Clear
4:13 AM -7.6 °F -27.5 °F -11.2 °F 84% 30.31 in 10.0 mi SSW 12.7 mph - N/A   Clear
4:33 AM -5.8 °F -24.4 °F -9.4 °F 84% 30.30 in 10.0 mi SSW 11.5 mph - N/A   Clear
4:53 AM -5.8 °F -25.2 °F -9.4 °F 84% 30.27 in 10.0 mi SW 12.7 mph - N/A   Clear
5:13 AM -2.2 °F -21.5 °F -7.6 °F 78% 30.26 in 10.0 mi SW 13.8 mph - N/A   Clear
5:33 AM -0.4 °F -19.9 °F -5.8 °F 78% 30.24 in 10.0 mi SW 15.0 mph 23.0 mph N/A   Clear
5:53 AM -0.4 °F -20.5 °F -5.8 °F 78% 30.23 in 10.0 mi SW 16.1 mph 24.2 mph N/A   Clear
6:13 AM -0.4 °F -19.9 °F -5.8 °F 78% 30.21 in 10.0 mi SW 15.0 mph - N/A   Clear
6:33 AM -0.4 °F -21.2 °F -5.8 °F 78% 30.18 in 10.0 mi SW 17.3 mph - N/A   Clear
6:53 AM -0.4 °F -21.7 °F -5.8 °F 78% 30.17 in 10.0 mi SW 18.4 mph - N/A   Clear
7:13 AM -0.4 °F -21.7 °F -5.8 °F 78% 30.15 in 10.0 mi SW 18.4 mph - N/A   Clear
7:33 AM -0.4 °F -22.8 °F -5.8 °F 78% 30.14 in 10.0 mi SW 20.7 mph - N/A   Clear
7:53 AM -0.4 °F -22.3 °F -5.8 °F 78% 30.14 in 10.0 mi SW 19.6 mph - N/A   Clear
8:13 AM 1.4 °F -19.9 °F -5.8 °F 72% 30.12 in 10.0 mi SW 19.6 mph 25.3 mph N/A   Clear
8:33 AM 1.4 °F -19.9 °F -5.8 °F 72% 30.10 in 10.0 mi SW 19.6 mph 25.3 mph N/A   Clear
8:53 AM 1.4 °F -19.4 °F -4.0 °F 78% 30.10 in 10.0 mi SW 18.4 mph 21.9 mph N/A   Clear
9:13 AM 3.2 °F -19.0 °F -4.0 °F 72% 30.09 in 10.0 mi SW 23.0 mph - N/A   Clear
9:33 AM 3.2 °F -17.1 °F -2.2 °F 78% 30.09 in 10.0 mi SW 18.4 mph 26.5 mph N/A   Mostly Cloudy
9:53 AM 5.0 °F -15.7 °F -2.2 °F 72% 30.08 in 10.0 mi SW 20.7 mph 26.5 mph N/A   Mostly Cloudy
10:13 AM 5.0 °F -14.2 °F -2.2 °F 72% 30.07 in 10.0 mi WSW 17.3 mph 23.0 mph N/A   Mostly Cloudy
10:33 AM 6.8 °F -12.9 °F -2.2 °F 67% 30.07 in 10.0 mi WSW 19.6 mph - N/A   Mostly Cloudy
10:53 AM 6.8 °F -11.8 °F -2.2 °F 67% 30.07 in 10.0 mi WSW 17.3 mph 26.5 mph N/A   Mostly Cloudy
11:13 AM 8.6 °F -8.9 °F -0.4 °F 67% 30.06 in 10.0 mi West 16.1 mph 25.3 mph N/A   Scattered Clouds
11:33 AM 8.6 °F -8.3 °F -0.4 °F 67% 30.05 in 10.0 mi WSW 15.0 mph 24.2 mph N/A   Scattered Clouds
11:53 AM 10.4 °F -7.2 °F 1.4 °F 67% 30.03 in 10.0 mi WSW 17.3 mph 21.9 mph N/A   Scattered Clouds
12:13 PM 10.4 °F -6.6 °F 1.4 °F 67% 30.03 in 10.0 mi West 16.1 mph 24.2 mph N/A   Clear
12:33 PM 12.2 °F -5.3 °F 1.4 °F 62% 30.02 in 10.0 mi West 18.4 mph 23.0 mph N/A   Clear
12:53 PM 12.2 °F -4.8 °F 1.4 °F 62% 30.01 in 10.0 mi West 17.3 mph 26.5 mph N/A   Clear
1:13 PM 12.2 °F -4.3 °F 3.2 °F 67% 30.01 in 10.0 mi West 16.1 mph 21.9 mph N/A   Clear
1:33 PM 14.0 °F -3.0 °F 3.2 °F 62% 30.01 in 10.0 mi West 18.4 mph 23.0 mph N/A   Clear
1:53 PM 14.0 °F -1.4 °F 3.2 °F 62% 30.00 in 10.0 mi West 15.0 mph - N/A   Clear
2:13 PM 14.0 °F -3.0 °F 3.2 °F 62% 30.00 in 10.0 mi West 18.4 mph - N/A   Clear
2:33 PM 15.8 °F -1.1 °F 3.2 °F 58% 30.00 in 10.0 mi West 19.6 mph 23.0 mph N/A   Clear
2:53 PM 14.0 °F -3.4 °F 3.2 °F 62% 30.01 in 10.0 mi West 19.6 mph 23.0 mph N/A   Clear
3:13 PM 14.0 °F -3.4 °F 5.0 °F 67% 30.00 in 10.0 mi West 19.6 mph 25.3 mph N/A   Clear
3:33 PM 14.0 °F -0.8 °F 5.0 °F 67% 30.01 in 10.0 mi West 13.8 mph 23.0 mph N/A   Clear
3:53 PM 14.0 °F -3.4 °F 6.8 °F 73% 30.00 in 10.0 mi West 19.6 mph - N/A   Clear
4:13 PM 14.0 °F -3.4 °F 6.8 °F 73% 30.00 in 10.0 mi West 19.6 mph 23.0 mph N/A   Scattered Clouds
4:53 PM 14.0 °F -3.0 °F 8.6 °F 79% 30.00 in 10.0 mi WSW 18.4 mph 23.0 mph N/A   Overcast
5:13 PM 15.8 °F 0.3 °F 8.6 °F 73% 30.01 in 10.0 mi West 16.1 mph 25.3 mph N/A   Overcast
5:33 PM 15.8 °F -1.5 °F 10.4 °F 79% 30.00 in 10.0 mi West 20.7 mph 28.8 mph N/A Snow Light Snow
5:53 PM 15.8 °F -1.9 °F 8.6 °F 73% 30.00 in 10.0 mi West 21.9 mph 26.5 mph N/A   Overcast
5:59 PM 15.8 °F -1.5 °F 10.4 °F 79% 30.00 in 10.0 mi West 20.7 mph 25.3 mph N/A   Overcast
6:33 PM 15.8 °F 1.4 °F 10.4 °F 79% 30.00 in 10.0 mi West 13.8 mph - N/A   Overcast
6:53 PM 15.8 °F -1.1 °F 10.4 °F 79% 29.99 in 10.0 mi West 19.6 mph 23.0 mph N/A Snow Light Snow
7:13 PM 15.8 °F -0.6 °F 10.4 °F 79% 29.99 in 10.0 mi West 18.4 mph - N/A   Scattered Clouds
7:33 PM 14.0 °F -0.8 °F 10.4 °F 86% 29.99 in 10.0 mi West 13.8 mph - N/A   Mostly Cloudy
7:53 PM 14.0 °F -1.4 °F 10.4 °F 86% 29.99 in 10.0 mi WSW 15.0 mph - N/A   Overcast
8:13 PM 14.0 °F -0.2 °F 10.4 °F 86% 29.99 in 10.0 mi WSW 12.7 mph 17.3 mph N/A   Scattered Clouds
8:33 PM 12.2 °F -3.1 °F 8.6 °F 85% 29.99 in 10.0 mi WSW 13.8 mph - N/A   Clear
8:53 PM 12.2 °F -3.7 °F 8.6 °F 85% 29.98 in 10.0 mi West 15.0 mph - N/A   Clear
9:13 PM 12.2 °F -3.7 °F 8.6 °F 85% 29.97 in 10.0 mi West 15.0 mph - N/A   Clear
9:33 PM 12.2 °F -2.5 °F 10.4 °F 92% 29.96 in 10.0 mi WSW 12.7 mph - N/A   Clear
9:53 PM 10.4 °F -4.1 °F 8.6 °F 92% 29.96 in 10.0 mi SW 11.5 mph - N/A   Clear
10:13 PM 10.4 °F -5.4 °F 8.6 °F 92% 29.95 in 10.0 mi WSW 13.8 mph - N/A   Clear
10:33 PM 10.4 °F -4.8 °F 8.6 °F 92% 29.93 in 10.0 mi WSW 12.7 mph - N/A   Clear
10:53 PM 10.4 °F -4.8 °F 8.6 °F 92% 29.91 in 10.0 mi WSW 12.7 mph - N/A   Clear
11:13 PM 10.4 °F -4.1 °F 8.6 °F 92% 29.91 in 10.0 mi SW 11.5 mph - N/A   Clear
11:33 PM 10.4 °F -3.3 °F 6.8 °F 85% 29.90 in 10.0 mi SW 10.4 mph - N/A   Clear
11:53 PM 12.2 °F -3.1 °F 10.4 °F 92% 29.89 in 10.0 mi WSW 13.8 mph - N/A   Clear